Time;durP1;ratioP1;P1;durP2;ratioP2;P2;SDS_P1;SDS_P2;PMS_P1;PMS_P2;Temp;Humidity;BMP_temperature;BMP_pressure;BME280_temperature;BME280_humidity;BME280_pressure;Samples;Min_cycle;Max_cycle;Signal;HPM_P1;HPM_P2
2023/08/21 00:00:00;;;;;;;3.47;3.07;;;27.30;91.20;;;;;;5006166;28;20397;-76
2023/08/21 00:02:28;;;;;;;3.43;3.13;;;27.30;91.20;;;;;;5005246;28;20429;-75
2023/08/21 00:04:54;;;;;;;3.43;2.90;;;27.30;91.20;;;;;;5005225;28;20539;-75
2023/08/21 00:07:20;;;;;;;3.10;2.90;;;27.30;91.20;;;;;;5004881;28;20452;-75
2023/08/21 00:09:46;;;;;;;4.30;2.80;;;27.30;91.30;;;;;;5004768;28;20813;-76
2023/08/21 00:12:13;;;;;;;3.43;3.07;;;27.20;91.20;;;;;;5004645;28;20417;-76
2023/08/21 00:14:41;;;;;;;3.33;3.00;;;27.20;91.10;;;;;;4991948;28;20489;-74
2023/08/21 00:17:10;;;;;;;3.30;3.10;;;27.20;91.20;;;;;;4984929;28;20871;-75
2023/08/21 00:19:43;;;;;;;3.13;2.70;;;27.20;91.20;;;;;;4973543;28;20602;-74
2023/08/21 00:22:09;;;;;;;4.40;3.00;;;27.20;91.20;;;;;;5001265;28;20444;-75
2023/08/21 00:24:38;;;;;;;3.40;3.10;;;27.20;91.20;;;;;;4987034;28;21140;-75
2023/08/21 00:27:04;;;;;;;3.40;3.07;;;27.10;91.10;;;;;;5006476;28;20192;-75
2023/08/21 00:29:30;;;;;;;3.63;2.80;;;27.10;91.20;;;;;;4986277;28;20433;-75
2023/08/21 00:32:01;;;;;;;3.40;3.10;;;27.10;91.20;;;;;;4970224;28;20504;-75
2023/08/21 00:34:27;;;;;;;3.87;3.23;;;27.10;91.20;;;;;;4989304;28;20444;-75
2023/08/21 00:36:53;;;;;;;2.90;2.60;;;27.10;91.20;;;;;;4962515;28;20429;-75
2023/08/21 00:39:21;;;;;;;4.20;2.97;;;27.10;91.20;;;;;;4969031;28;20437;-75
2023/08/21 00:41:50;;;;;;;3.50;3.20;;;27.10;91.20;;;;;;4985668;28;20429;-76
2023/08/21 00:44:16;;;;;;;3.30;2.93;;;27.10;91.10;;;;;;4976855;28;20526;-75
2023/08/21 00:46:42;;;;;;;3.90;3.50;;;27.10;91.10;;;;;;4972621;28;20432;-76
2023/08/21 00:49:08;;;;;;;4.20;3.30;;;27.00;91.00;;;;;;5005261;28;20411;-75
2023/08/21 00:51:37;;;;;;;5.03;2.83;;;27.00;91.00;;;;;;4988487;28;20455;-75
2023/08/21 00:54:06;;;;;;;4.17;3.00;;;27.00;91.00;;;;;;4989418;28;20505;-76
2023/08/21 00:56:32;;;;;;;5.67;3.23;;;27.00;91.00;;;;;;4996818;28;20422;-76
2023/08/21 00:58:58;;;;;;;3.60;3.27;;;27.00;91.00;;;;;;4986487;28;21222;-76
2023/08/21 01:01:27;;;;;;;3.60;3.30;;;27.00;91.00;;;;;;5004821;28;20420;-75
2023/08/21 01:03:56;;;;;;;3.27;2.93;;;26.90;91.10;;;;;;4985515;28;20919;-75
2023/08/21 01:06:22;;;;;;;3.27;2.93;;;26.90;91.00;;;;;;4985512;28;20429;-76
2023/08/21 01:09:07;;;;;;;3.33;3.03;;;26.90;91.00;;;;;;4985834;28;20533;-76
2023/08/21 01:11:46;;;;;;;4.90;3.43;;;26.90;91.10;;;;;;4988309;28;20181;-75
2023/08/21 01:14:39;;;;;;;2.97;2.73;;;26.90;91.10;;;;;;4972689;28;20454;-76
2023/08/21 01:17:09;;;;;;;3.43;3.13;;;26.90;91.10;;;;;;4989591;28;20452;-75
2023/08/21 01:19:43;;;;;;;3.67;2.80;;;26.80;91.00;;;;;;4973565;28;20436;-76
2023/08/21 01:22:09;;;;;;;3.40;3.10;;;26.80;91.00;;;;;;5004802;28;20515;-76
2023/08/21 01:24:38;;;;;;;3.50;3.00;;;26.80;91.00;;;;;;5004883;28;20474;-75
2023/08/21 01:27:08;;;;;;;3.00;2.70;;;26.80;91.00;;;;;;5004726;28;20428;-75
2023/08/21 01:29:35;;;;;;;3.33;3.03;;;26.80;91.00;;;;;;4988251;28;20440;-75
2023/08/21 01:32:29;;;;;;;4.60;3.20;;;26.80;91.00;;;;;;4995849;28;20417;-76
2023/08/21 01:35:04;;;;;;;3.33;3.00;;;26.70;91.00;;;;;;4984513;28;20432;-76
2023/08/21 01:37:30;;;;;;;3.77;2.80;;;26.70;91.00;;;;;;4985441;28;20536;-75
2023/08/21 01:40:00;;;;;;;4.90;2.97;;;26.70;91.00;;;;;;4952686;28;20433;-75
2023/08/21 01:42:29;;;;;;;4.03;3.17;;;26.70;91.00;;;;;;4984345;28;20441;-75
2023/08/21 01:44:55;;;;;;;3.13;2.73;;;26.70;91.00;;;;;;4985298;28;20464;-75
2023/08/21 01:47:24;;;;;;;3.53;3.23;;;26.70;91.00;;;;;;4988103;28;20916;-75
2023/08/21 01:49:53;;;;;;;3.90;3.37;;;26.70;90.90;;;;;;5000169;28;20518;-76
2023/08/21 01:52:19;;;;;;;3.50;3.20;;;26.60;90.90;;;;;;4952228;28;21229;-75
2023/08/21 01:54:47;;;;;;;3.33;2.90;;;26.60;90.90;;;;;;4984594;28;20443;-76
2023/08/21 01:57:16;;;;;;;3.23;2.93;;;26.60;90.90;;;;;;4971341;28;20472;-76
2023/08/21 01:59:42;;;;;;;4.03;2.87;;;26.60;90.80;;;;;;4971548;28;20455;-76
2023/08/21 02:02:10;;;;;;;5.33;3.00;;;26.60;90.80;;;;;;4987724;28;20464;-76
2023/08/21 02:04:36;;;;;;;3.53;3.20;;;26.60;90.90;;;;;;5003761;28;20456;-75
2023/08/21 02:07:07;;;;;;;3.70;3.20;;;26.60;90.90;;;;;;4988065;28;20416;-75
2023/08/21 02:09:33;;;;;;;3.77;3.47;;;26.60;90.90;;;;;;4987289;28;20826;-76
2023/08/21 02:11:59;;;;;;;3.70;3.40;;;26.50;90.80;;;;;;4985362;28;20449;-75
2023/08/21 02:14:25;;;;;;;6.70;3.80;;;26.50;90.90;;;;;;4969012;28;20468;-76
2023/08/21 02:16:51;;;;;;;3.23;2.90;;;26.50;90.90;;;;;;4953443;28;20440;-76
2023/08/21 02:19:17;;;;;;;3.30;3.10;;;26.50;90.80;;;;;;4969588;28;20954;-76
2023/08/21 02:21:43;;;;;;;3.40;3.10;;;26.40;90.80;;;;;;4966905;28;20523;-74
2023/08/21 02:24:17;;;;;;;3.93;3.57;;;26.40;90.80;;;;;;4985812;28;20882;-75
2023/08/21 02:26:45;;;;;;;3.30;3.00;;;26.40;90.80;;;;;;5002409;28;20467;-75
2023/08/21 02:29:13;;;;;;;6.90;3.03;;;26.40;90.80;;;;;;4988968;28;20515;-76
2023/08/21 02:31:42;;;;;;;2.93;2.73;;;26.40;90.80;;;;;;4987454;28;20440;-76
2023/08/21 02:34:09;;;;;;;4.00;2.80;;;26.40;90.90;;;;;;4985679;28;20864;-76
2023/08/21 02:36:35;;;;;;;4.83;3.20;;;26.40;90.90;;;;;;4952057;28;20475;-76
2023/08/21 02:39:01;;;;;;;3.63;3.03;;;26.40;90.90;;;;;;4967806;28;20448;-76
2023/08/21 02:41:27;;;;;;;3.33;3.13;;;26.30;90.90;;;;;;5001009;28;20827;-76
2023/08/21 02:43:57;;;;;;;3.80;3.50;;;26.40;91.00;;;;;;4986383;28;20603;-76
2023/08/21 02:46:23;;;;;;;3.37;3.13;;;26.30;90.90;;;;;;5002981;28;20307;-76
2023/08/21 02:48:49;;;;;;;4.90;3.00;;;26.30;90.90;;;;;;4986756;28;20427;-75
2023/08/21 02:51:19;;;;;;;3.30;3.00;;;26.30;90.90;;;;;;4989024;28;20448;-76
2023/08/21 02:53:49;;;;;;;3.50;3.20;;;26.30;90.90;;;;;;4983651;28;20511;-76
2023/08/21 02:56:16;;;;;;;3.73;2.90;;;26.30;91.00;;;;;;4982589;23;21011;-73
2023/08/21 02:58:42;;;;;;;3.47;3.20;;;26.30;91.10;;;;;;4968637;28;20976;-73
2023/08/21 03:01:08;;;;;;;3.60;3.30;;;26.20;91.00;;;;;;4984847;28;20410;-73
2023/08/21 03:03:35;;;;;;;4.07;2.90;;;26.20;91.10;;;;;;4972621;28;20470;-72
2023/08/21 03:06:04;;;;;;;3.17;2.97;;;26.20;91.10;;;;;;4989151;28;20456;-74
2023/08/21 03:08:32;;;;;;;4.43;3.13;;;26.20;91.00;;;;;;4988423;28;20853;-73
2023/08/21 03:11:01;;;;;;;3.27;2.97;;;26.10;91.00;;;;;;4972427;28;20454;-74
2023/08/21 03:13:29;;;;;;;4.73;2.70;;;26.10;91.00;;;;;;4972667;28;20886;-73
2023/08/21 03:16:00;;;;;;;4.07;3.03;;;26.10;91.10;;;;;;4988827;28;20420;-73
2023/08/21 03:18:31;;;;;;;3.10;2.90;;;26.10;91.10;;;;;;4989058;28;20448;-74
2023/08/21 03:20:57;;;;;;;3.23;2.93;;;26.10;91.10;;;;;;4988700;28;20546;-73
2023/08/21 03:23:24;;;;;;;3.43;3.13;;;26.10;91.10;;;;;;4972144;28;20468;-73
2023/08/21 03:25:58;;;;;;;3.27;3.03;;;26.10;91.10;;;;;;4988600;28;20524;-73
2023/08/21 03:28:30;;;;;;;3.07;2.87;;;26.00;91.20;;;;;;5004362;28;20479;-73
2023/08/21 03:30:57;;;;;;;3.17;2.90;;;26.00;91.10;;;;;;5004004;28;20438;-73
2023/08/21 03:33:25;;;;;;;3.97;3.60;;;26.00;91.20;;;;;;4988231;28;20735;-73
2023/08/21 03:35:54;;;;;;;5.10;3.53;;;26.00;91.10;;;;;;4972074;28;20439;-73
2023/08/21 03:38:21;;;;;;;3.53;3.23;;;26.00;91.20;;;;;;4972508;28;20964;-73
2023/08/21 03:40:47;;;;;;;4.37;3.17;;;26.00;91.20;;;;;;4978431;28;20444;-73
2023/08/21 03:43:14;;;;;;;3.33;3.03;;;26.00;91.20;;;;;;4936476;28;20296;-73
2023/08/21 03:45:42;;;;;;;3.60;3.27;;;26.00;91.20;;;;;;4937106;28;20468;-74
2023/08/21 03:48:14;;;;;;;3.67;2.97;;;25.90;91.20;;;;;;4952342;28;20534;-73
2023/08/21 03:50:40;;;;;;;3.47;3.17;;;25.90;91.20;;;;;;4971691;28;20505;-73
2023/08/21 03:53:06;;;;;;;3.60;3.30;;;25.90;91.20;;;;;;4971474;28;20448;-73
2023/08/21 03:55:33;;;;;;;3.33;3.03;;;25.90;91.20;;;;;;4987097;28;20438;-73
2023/08/21 03:58:00;;;;;;;3.80;3.10;;;25.90;91.20;;;;;;4987393;28;20626;-73
2023/08/21 04:00:27;;;;;;;3.30;3.00;;;25.90;91.20;;;;;;4970937;28;20449;-73
2023/08/21 04:02:53;;;;;;;3.40;3.20;;;25.90;91.20;;;;;;4988212;28;20460;-73
2023/08/21 04:05:19;;;;;;;4.60;3.10;;;25.80;91.20;;;;;;4955693;28;20565;-73
2023/08/21 04:07:47;;;;;;;6.50;2.97;;;25.80;91.20;;;;;;4987941;28;20405;-73
2023/08/21 04:10:14;;;;;;;3.73;2.73;;;25.80;91.20;;;;;;4987583;28;20451;-72
2023/08/21 04:12:45;;;;;;;3.40;3.10;;;25.80;91.10;;;;;;4987979;28;20405;-72
2023/08/21 04:15:16;;;;;;;3.47;3.27;;;25.80;91.20;;;;;;4970807;28;20439;-73
2023/08/21 04:17:42;;;;;;;5.90;3.30;;;25.80;91.10;;;;;;4955586;28;20438;-73
2023/08/21 04:20:11;;;;;;;3.70;3.40;;;25.80;91.10;;;;;;4972084;28;20423;-73
2023/08/21 04:22:41;;;;;;;3.93;3.50;;;25.70;91.10;;;;;;4971912;28;20467;-74
2023/08/21 04:25:07;;;;;;;3.33;3.03;;;25.70;91.10;;;;;;4956027;28;20455;-74
2023/08/21 04:27:37;;;;;;;3.33;3.03;;;25.70;91.10;;;;;;4990458;28;20496;-73
2023/08/21 04:30:04;;;;;;;3.47;2.63;;;25.70;91.10;;;;;;4987989;28;20512;-75
2023/08/21 04:32:33;;;;;;;3.03;2.73;;;25.70;91.10;;;;;;4955938;28;20436;-73
2023/08/21 04:34:59;;;;;;;4.10;2.80;;;25.70;91.20;;;;;;4954975;28;20460;-73
2023/08/21 04:37:28;;;;;;;3.27;2.60;;;25.70;91.10;;;;;;4984682;28;20425;-73
2023/08/21 04:39:55;;;;;;;4.80;3.37;;;25.60;91.10;;;;;;4984981;28;20496;-72
2023/08/21 04:42:25;;;;;;;2.90;2.70;;;25.60;91.10;;;;;;4987901;28;20432;-74
2023/08/21 04:44:53;;;;;;;3.13;2.80;;;25.60;91.10;;;;;;4971331;28;20459;-74
2023/08/21 04:47:27;;;;;;;3.80;2.83;;;25.60;91.10;;;;;;4970877;28;20468;-73
2023/08/21 04:49:56;;;;;;;3.80;3.00;;;25.60;91.10;;;;;;4955311;28;21156;-73
2023/08/21 04:52:23;;;;;;;3.30;2.80;;;25.60;91.10;;;;;;4971483;28;20795;-74
2023/08/21 04:54:50;;;;;;;3.70;3.13;;;25.60;91.10;;;;;;4971126;28;20531;-74
2023/08/21 04:57:17;;;;;;;3.33;3.03;;;25.60;91.10;;;;;;4971166;28;20598;-74
2023/08/21 04:59:47;;;;;;;5.97;3.27;;;25.50;91.10;;;;;;4987307;28;20482;-74
2023/08/21 05:02:17;;;;;;;3.13;2.93;;;25.50;91.10;;;;;;4987265;28;20439;-74
2023/08/21 05:04:49;;;;;;;3.60;3.10;;;25.50;91.20;;;;;;4986701;28;20538;-73
2023/08/21 05:07:18;;;;;;;3.50;3.10;;;25.50;91.20;;;;;;4955265;28;21240;-73
2023/08/21 05:09:44;;;;;;;2.80;2.60;;;25.50;91.10;;;;;;5005493;28;20431;-74
2023/08/21 05:12:12;;;;;;;4.27;3.40;;;25.50;91.20;;;;;;4971465;28;20420;-73
2023/08/21 05:14:43;;;;;;;3.63;3.33;;;25.50;91.10;;;;;;4955197;28;21278;-73
2023/08/21 05:17:09;;;;;;;5.27;2.87;;;25.50;91.20;;;;;;4955167;28;20443;-74
2023/08/21 05:19:38;;;;;;;3.40;3.10;;;25.40;91.20;;;;;;4986762;28;20444;-73
2023/08/21 05:22:04;;;;;;;2.70;2.50;;;25.40;91.10;;;;;;4986911;28;20489;-73
2023/08/21 05:24:34;;;;;;;3.40;3.10;;;25.40;91.20;;;;;;4977710;28;20456;-74
2023/08/21 05:27:04;;;;;;;5.60;3.13;;;25.40;91.30;;;;;;4966024;28;20864;-74
2023/08/21 05:29:31;;;;;;;3.40;3.10;;;25.40;91.20;;;;;;4950460;28;20492;-73
2023/08/21 05:32:00;;;;;;;3.77;3.47;;;25.40;91.20;;;;;;4950811;28;20452;-72
2023/08/21 05:34:28;;;;;;;3.77;2.90;;;25.40;91.20;;;;;;4957206;28;20486;-70
2023/08/21 05:36:57;;;;;;;3.93;3.20;;;25.40;91.30;;;;;;4982289;28;20508;-71
2023/08/21 05:39:25;;;;;;;5.63;3.57;;;25.40;91.30;;;;;;5000289;28;20459;-68
2023/08/21 05:41:52;;;;;;;5.93;3.50;;;25.40;90.50;;;;;;4985386;28;20489;-69
2023/08/21 05:44:21;;;;;;;3.90;3.40;;;25.30;90.20;;;;;;4985036;28;20463;-70
2023/08/21 05:46:47;;;;;;;5.50;4.03;;;25.20;90.40;;;;;;5003690;28;21182;-71
2023/08/21 05:49:14;;;;;;;5.13;3.57;;;25.20;90.60;;;;;;5003652;28;20404;-70
2023/08/21 05:51:41;;;;;;;5.80;3.83;;;25.20;90.70;;;;;;4969545;28;21230;-69
2023/08/21 05:54:08;;;;;;;5.43;4.03;;;25.10;90.70;;;;;;4985962;28;20913;-70
2023/08/21 05:56:38;;;;;;;5.20;3.53;;;25.10;90.80;;;;;;4985579;28;20529;-70
2023/08/21 05:59:10;;;;;;;6.77;3.30;;;25.10;90.80;;;;;;4969359;28;20443;-71
2023/08/21 06:01:38;;;;;;;4.77;3.67;;;25.10;90.90;;;;;;4985306;28;20498;-70
2023/08/21 06:04:07;;;;;;;3.40;3.10;;;25.10;90.90;;;;;;4968864;28;20479;-70
2023/08/21 06:06:50;;;;;;;3.47;3.17;;;25.10;91.00;;;;;;4971450;28;20429;-70
2023/08/21 06:09:19;;;;;;;7.57;3.43;;;25.10;91.00;;;;;;4985591;28;20423;-71
2023/08/21 06:11:45;;;;;;;3.77;3.23;;;25.10;91.00;;;;;;4969626;28;20463;-70
2023/08/21 06:14:16;;;;;;;4.27;3.37;;;25.10;91.20;;;;;;4985589;28;20440;-71
2023/08/21 06:16:44;;;;;;;3.77;3.37;;;25.10;91.20;;;;;;4969317;28;20421;-71
2023/08/21 06:19:13;;;;;;;4.40;3.70;;;25.10;91.20;;;;;;4985722;28;20525;-70
2023/08/21 06:21:42;;;;;;;4.10;3.40;;;25.10;91.30;;;;;;4969067;28;20451;-71
2023/08/21 06:24:11;;;;;;;3.43;3.13;;;25.10;91.30;;;;;;5001910;28;20471;-70
2023/08/21 06:26:40;;;;;;;3.70;3.40;;;25.10;91.30;;;;;;4984975;28;20405;-69
2023/08/21 06:29:07;;;;;;;4.87;3.50;;;25.10;91.30;;;;;;4985163;28;20427;-71
2023/08/21 06:31:33;;;;;;;4.50;3.67;;;25.10;91.40;;;;;;4985332;28;20446;-69
2023/08/21 06:33:59;;;;;;;3.53;3.23;;;25.10;91.40;;;;;;4986227;28;21185;-70
2023/08/21 06:36:25;;;;;;;4.60;3.40;;;25.10;91.40;;;;;;4985090;28;20415;-71
2023/08/21 06:38:51;;;;;;;4.30;3.30;;;25.10;91.40;;;;;;4985104;28;20493;-70
2023/08/21 06:41:19;;;;;;;5.30;2.80;;;25.10;91.50;;;;;;4969285;28;20432;-73
2023/08/21 06:43:47;;;;;;;4.70;4.00;;;25.10;91.40;;;;;;4984889;28;21327;-73
2023/08/21 06:46:19;;;;;;;4.03;3.47;;;25.10;91.40;;;;;;4985225;28;20413;-75
2023/08/21 06:48:50;;;;;;;3.50;3.20;;;25.10;91.40;;;;;;4968014;28;20522;-73
2023/08/21 06:51:16;;;;;;;3.87;2.87;;;25.10;91.50;;;;;;4982669;28;20456;-70
2023/08/21 06:53:44;;;;;;;3.60;3.00;;;25.10;91.60;;;;;;4982920;28;20643;-73
2023/08/21 06:56:10;;;;;;;5.00;3.30;;;25.10;91.60;;;;;;4996784;28;21442;-73
2023/08/21 06:58:39;;;;;;;5.17;3.07;;;25.10;91.60;;;;;;5002854;28;20416;-72
2023/08/21 07:01:07;;;;;;;2.90;2.70;;;25.10;91.50;;;;;;4985312;28;21063;-72
2023/08/21 07:03:35;;;;;;;3.00;2.80;;;25.10;91.60;;;;;;4984455;28;20476;-71
2023/08/21 07:06:13;;;;;;;3.53;3.23;;;25.10;91.60;;;;;;4951624;28;20428;-72
2023/08/21 07:08:42;;;;;;;3.03;2.70;;;25.10;91.60;;;;;;4982508;28;20433;-72
2023/08/21 07:11:09;;;;;;;3.20;2.80;;;25.10;91.60;;;;;;4966609;28;20478;-70
2023/08/21 07:13:36;;;;;;;4.30;3.47;;;25.10;91.60;;;;;;4982153;28;20530;-69
2023/08/21 07:16:08;;;;;;;5.00;3.40;;;25.10;91.70;;;;;;4999586;28;20413;-71
2023/08/21 07:18:35;;;;;;;3.67;2.77;;;25.10;91.60;;;;;;4999602;28;20462;-71
2023/08/21 07:21:04;;;;;;;4.30;3.30;;;25.10;91.50;;;;;;4982534;28;20498;-70
2023/08/21 07:23:31;;;;;;;3.00;2.80;;;25.10;91.60;;;;;;4983091;28;20474;-72
2023/08/21 07:26:00;;;;;;;3.40;2.67;;;25.10;91.50;;;;;;4982751;28;20447;-70
2023/08/21 07:28:26;;;;;;;4.03;3.03;;;25.10;91.40;;;;;;4983123;28;21007;-71
2023/08/21 07:30:58;;;;;;;3.40;3.10;;;25.20;91.40;;;;;;5000997;28;20425;-71
2023/08/21 07:33:27;;;;;;;4.43;3.50;;;25.10;91.30;;;;;;4982896;28;20428;-68
2023/08/21 07:36:01;;;;;;;3.37;3.00;;;25.10;91.40;;;;;;4953514;28;20495;-68
2023/08/21 07:38:31;;;;;;;3.50;3.10;;;25.20;91.50;;;;;;4966965;28;20940;-71
2023/08/21 07:41:12;;;;;;;3.37;3.07;;;25.20;91.50;;;;;;4967213;28;20424;-71
2023/08/21 07:43:43;;;;;;;3.80;3.50;;;25.20;91.60;;;;;;4983593;28;20860;-70
2023/08/21 07:46:18;;;;;;;3.00;2.80;;;25.20;91.60;;;;;;4983138;28;20841;-69
2023/08/21 07:48:46;;;;;;;3.10;2.87;;;25.20;91.60;;;;;;5001218;28;20404;-69
2023/08/21 07:51:13;;;;;;;4.93;3.00;;;25.20;91.60;;;;;;5004503;28;20799;-71
2023/08/21 07:53:41;;;;;;;3.50;3.20;;;25.20;91.60;;;;;;4987090;28;21128;-69
2023/08/21 07:56:09;;;;;;;4.10;3.10;;;25.20;91.50;;;;;;4987699;28;20480;-71
2023/08/21 07:58:37;;;;;;;3.23;3.03;;;25.20;91.50;;;;;;5005726;28;20447;-71
2023/08/21 08:01:04;;;;;;;3.60;3.27;;;25.20;91.60;;;;;;4970909;28;20409;-71
2023/08/21 08:03:31;;;;;;;3.97;3.67;;;25.20;91.60;;;;;;5003742;28;20466;-71
2023/08/21 08:05:59;;;;;;;4.37;2.80;;;25.20;91.60;;;;;;4970436;28;20428;-69
2023/08/21 08:08:29;;;;;;;6.50;3.50;;;25.20;91.60;;;;;;4970048;28;20465;-71
2023/08/21 08:11:02;;;;;;;2.93;2.67;;;25.20;91.60;;;;;;4986691;28;20574;-71
2023/08/21 08:13:31;;;;;;;4.60;3.63;;;25.20;91.60;;;;;;4986285;28;20459;-70
2023/08/21 08:15:57;;;;;;;3.30;3.00;;;25.20;91.70;;;;;;4986481;28;20452;-69
2023/08/21 08:18:23;;;;;;;3.70;2.93;;;25.20;91.60;;;;;;4986990;28;20427;-71
2023/08/21 08:20:52;;;;;;;3.40;3.10;;;25.20;91.60;;;;;;5002341;28;20478;-69
2023/08/21 08:23:20;;;;;;;3.20;3.00;;;25.20;91.60;;;;;;4969466;28;20436;-71
2023/08/21 08:25:47;;;;;;;3.87;3.53;;;25.20;91.60;;;;;;4969215;28;20566;-70
2023/08/21 08:28:13;;;;;;;3.67;3.30;;;25.20;91.60;;;;;;4972654;28;21025;-70
2023/08/21 08:30:39;;;;;;;4.50;3.77;;;25.20;91.60;;;;;;4966263;28;20410;-70
2023/08/21 08:33:10;;;;;;;6.00;3.80;;;25.20;91.60;;;;;;4966808;28;20432;-71
2023/08/21 08:35:40;;;;;;;4.57;3.80;;;25.20;91.70;;;;;;4934567;28;20445;-70
2023/08/21 08:38:06;;;;;;;4.30;3.80;;;25.30;91.70;;;;;;4966614;28;20527;-69
2023/08/21 08:40:37;;;;;;;3.60;3.30;;;25.30;91.70;;;;;;4996575;28;20421;-71
2023/08/21 08:43:05;;;;;;;3.67;3.37;;;25.30;91.70;;;;;;4997941;28;20209;-71
2023/08/21 08:45:36;;;;;;;4.30;3.90;;;25.30;91.70;;;;;;4950175;28;20461;-69
2023/08/21 08:48:07;;;;;;;4.53;3.07;;;25.30;91.80;;;;;;4965856;28;20497;-70
2023/08/21 08:50:34;;;;;;;3.80;3.40;;;25.30;92.10;;;;;;4965806;28;20488;-70
2023/08/21 08:53:03;;;;;;;4.73;3.30;;;25.30;91.80;;;;;;4965476;28;20516;-71
2023/08/21 08:55:30;;;;;;;3.73;3.43;;;25.40;91.90;;;;;;4983272;28;20429;-71
2023/08/21 08:58:00;;;;;;;5.33;3.90;;;25.40;91.80;;;;;;4976929;28;20485;-71
2023/08/21 09:00:26;;;;;;;3.70;3.40;;;25.40;91.80;;;;;;4968722;28;20427;-70
2023/08/21 09:02:55;;;;;;;4.13;3.60;;;25.40;91.80;;;;;;4984888;28;20463;-70
2023/08/21 09:05:21;;;;;;;4.37;3.70;;;25.40;91.80;;;;;;4985097;28;20436;-70
2023/08/21 09:08:22;;;;;;;5.33;3.60;;;25.40;91.80;;;;;;4966293;28;20808;-71
2023/08/21 09:10:51;;;;;;;5.43;3.60;;;25.50;91.80;;;;;;4954097;28;20452;-69
2023/08/21 09:13:19;;;;;;;5.10;4.20;;;25.50;91.80;;;;;;4985176;28;20489;-70
2023/08/21 09:15:53;;;;;;;4.67;3.60;;;25.50;91.80;;;;;;4969093;28;20520;-70
2023/08/21 09:18:19;;;;;;;4.43;4.03;;;25.50;91.80;;;;;;4985202;28;20407;-70
2023/08/21 09:20:46;;;;;;;4.00;3.80;;;25.50;91.80;;;;;;4984850;28;21234;-70
2023/08/21 09:23:16;;;;;;;4.97;3.20;;;25.60;91.80;;;;;;4984440;28;20447;-69
2023/08/21 09:25:47;;;;;;;3.83;3.23;;;25.60;91.80;;;;;;5002301;28;20409;-70
2023/08/21 09:28:22;;;;;;;3.93;3.40;;;25.60;91.70;;;;;;4984792;28;20459;-69
2023/08/21 09:30:52;;;;;;;6.27;3.30;;;25.70;91.70;;;;;;4984724;28;21281;-70
2023/08/21 09:33:22;;;;;;;3.60;2.73;;;25.70;91.60;;;;;;4967880;28;20490;-70
2023/08/21 09:35:53;;;;;;;3.83;3.50;;;25.70;91.50;;;;;;5002973;28;20397;-70
2023/08/21 09:38:22;;;;;;;3.93;3.63;;;25.70;91.40;;;;;;4985479;28;20510;-70
2023/08/21 09:40:53;;;;;;;4.20;3.80;;;25.70;91.30;;;;;;5002530;28;20447;-71
2023/08/21 09:43:24;;;;;;;4.07;3.60;;;25.80;91.30;;;;;;5002518;28;20993;-69
2023/08/21 09:45:55;;;;;;;4.67;4.17;;;25.80;91.40;;;;;;5000608;28;20471;-70
2023/08/21 09:48:29;;;;;;;4.93;3.83;;;25.80;91.40;;;;;;4984501;28;21193;-70
2023/08/21 09:50:59;;;;;;;4.17;3.77;;;25.90;91.30;;;;;;5000748;28;20405;-70
2023/08/21 09:53:28;;;;;;;4.33;3.93;;;25.90;91.30;;;;;;5000356;28;20523;-69
2023/08/21 09:55:55;;;;;;;5.00;3.57;;;25.90;91.30;;;;;;5001549;28;20516;-68
2023/08/21 09:58:28;;;;;;;3.90;3.70;;;25.90;91.30;;;;;;4984071;28;20499;-69
2023/08/21 10:00:57;;;;;;;5.17;3.57;;;26.00;91.30;;;;;;5000568;28;20409;-70
2023/08/21 10:03:27;;;;;;;4.70;4.10;;;26.00;91.30;;;;;;4984515;28;20475;-71
2023/08/21 10:05:57;;;;;;;4.30;3.67;;;26.00;91.30;;;;;;5001549;28;20439;-70
2023/08/21 10:08:27;;;;;;;4.30;3.87;;;26.00;91.30;;;;;;5001488;28;20979;-70
2023/08/21 10:10:59;;;;;;;3.57;3.27;;;26.10;91.30;;;;;;4987079;28;20430;-69
2023/08/21 10:13:28;;;;;;;5.20;3.63;;;26.10;91.30;;;;;;4982592;28;20498;-68
2023/08/21 10:15:54;;;;;;;4.43;3.77;;;26.10;91.20;;;;;;4948934;28;20433;-70
2023/08/21 10:18:30;;;;;;;4.20;3.70;;;26.10;91.20;;;;;;4948536;28;20425;-70
2023/08/21 10:21:09;;;;;;;3.97;3.63;;;26.20;91.10;;;;;;4973792;28;20454;-69
2023/08/21 10:23:41;;;;;;;4.00;3.60;;;26.20;91.10;;;;;;5000380;28;20459;-69
2023/08/21 10:26:09;;;;;;;4.40;4.00;;;26.20;91.10;;;;;;5001818;28;20429;-70
2023/08/21 10:28:53;;;;;;;4.20;3.90;;;26.30;91.10;;;;;;4967659;28;21269;-70
2023/08/21 10:31:35;;;;;;;5.00;3.30;;;26.30;91.20;;;;;;4967824;28;20424;-68
2023/08/21 10:34:14;;;;;;;7.57;4.43;;;26.30;91.10;;;;;;5001779;28;20440;-70
2023/08/21 10:36:43;;;;;;;4.20;3.40;;;26.40;91.00;;;;;;4984243;28;21141;-70
2023/08/21 10:39:22;;;;;;;5.07;3.80;;;26.40;91.30;;;;;;4984071;28;20424;-69
2023/08/21 10:42:09;;;;;;;4.43;3.97;;;26.40;91.00;;;;;;5000284;28;20475;-70
2023/08/21 10:44:56;;;;;;;5.73;4.10;;;26.50;91.00;;;;;;5000227;28;21357;-70
2023/08/21 10:47:32;;;;;;;3.80;3.40;;;26.50;91.00;;;;;;4984054;28;20432;-71
2023/08/21 10:50:04;;;;;;;3.80;3.50;;;26.50;91.00;;;;;;4988668;28;20813;-70
2023/08/21 10:52:44;;;;;;;4.17;3.60;;;26.50;91.00;;;;;;4979269;28;20483;-70
2023/08/21 10:55:11;;;;;;;4.47;3.70;;;26.60;91.00;;;;;;4955097;28;20586;-70
2023/08/21 10:57:41;;;;;;;4.17;3.87;;;26.60;90.90;;;;;;4999989;28;20483;-70
2023/08/21 11:00:09;;;;;;;7.27;3.80;;;26.70;90.90;;;;;;4982877;28;20433;-69
2023/08/21 11:02:36;;;;;;;4.10;3.63;;;26.70;90.80;;;;;;5000106;28;20409;-69
2023/08/21 11:05:06;;;;;;;4.10;3.80;;;26.70;90.90;;;;;;5011651;23;20594;-73
2023/08/21 11:07:46;;;;;;;4.10;3.70;;;26.70;90.80;;;;;;4984012;28;20463;-73
2023/08/21 11:10:21;;;;;;;3.97;3.60;;;26.70;90.80;;;;;;4971119;28;20416;-73
2023/08/21 11:12:55;;;;;;;5.80;3.67;;;26.80;90.80;;;;;;4971591;28;20469;-73
2023/08/21 11:15:22;;;;;;;4.37;3.77;;;26.80;90.80;;;;;;4971059;28;20590;-73
2023/08/21 11:17:56;;;;;;;5.23;3.80;;;26.80;90.70;;;;;;4986766;28;20518;-73
2023/08/21 11:20:22;;;;;;;3.73;3.43;;;26.90;90.70;;;;;;4970446;28;20419;-73
2023/08/21 11:22:50;;;;;;;4.70;4.03;;;26.90;90.70;;;;;;4987156;28;20408;-73
2023/08/21 11:25:18;;;;;;;6.80;4.10;;;26.90;90.60;;;;;;5080624;22;20494;-73
2023/08/21 11:27:46;;;;;;;3.80;3.40;;;27.00;90.70;;;;;;4996831;28;20837;-73
2023/08/21 11:30:16;;;;;;;4.50;4.10;;;27.00;90.70;;;;;;5025217;28;20776;-73
2023/08/21 11:32:42;;;;;;;4.53;4.03;;;27.00;90.70;;;;;;5008665;28;20921;-73
2023/08/21 11:35:13;;;;;;;4.40;3.80;;;27.00;90.70;;;;;;5011081;28;20436;-73
2023/08/21 11:37:45;;;;;;;3.87;3.57;;;27.10;90.60;;;;;;5015738;28;20438;-74
2023/08/21 11:40:15;;;;;;;4.20;3.80;;;27.10;90.60;;;;;;5014962;28;20473;-73
2023/08/21 11:42:41;;;;;;;5.57;3.80;;;27.10;90.70;;;;;;5012049;28;20463;-73
2023/08/21 11:45:10;;;;;;;4.00;3.70;;;27.10;90.50;;;;;;5025348;28;20462;-74
2023/08/21 11:47:44;;;;;;;3.80;3.50;;;27.20;90.60;;;;;;5025665;28;20461;-74
2023/08/21 11:50:18;;;;;;;4.30;3.87;;;27.20;90.60;;;;;;5025279;28;20446;-74
2023/08/21 11:52:43;;;;;;;3.80;3.50;;;27.20;90.50;;;;;;5010569;28;20966;-73
2023/08/21 11:55:13;;;;;;;4.70;4.20;;;27.30;90.50;;;;;;5008540;28;20410;-74
2023/08/21 11:57:53;;;;;;;5.07;3.40;;;27.30;90.50;;;;;;5008603;28;20435;-74
2023/08/21 12:00:28;;;;;;;6.03;4.23;;;27.30;90.40;;;;;;5008236;28;20440;-74
2023/08/21 12:03:00;;;;;;;6.20;4.30;;;27.40;90.50;;;;;;5008030;28;20962;-73
2023/08/21 12:05:28;;;;;;;4.60;4.20;;;27.40;90.40;;;;;;5008018;28;20474;-74
2023/08/21 12:08:00;;;;;;;4.37;3.97;;;27.40;90.40;;;;;;5008766;28;20416;-74
2023/08/21 12:10:29;;;;;;;4.50;4.00;;;27.40;90.30;;;;;;5025765;28;20457;-74
2023/08/21 12:12:56;;;;;;;4.20;3.80;;;27.50;90.40;;;;;;5007700;28;20971;-74
2023/08/21 12:15:22;;;;;;;4.07;3.77;;;27.50;90.30;;;;;;5007739;28;20418;-74
2023/08/21 12:17:51;;;;;;;4.40;4.00;;;27.50;90.30;;;;;;5025770;28;20443;-74
2023/08/21 12:20:17;;;;;;;3.77;3.47;;;27.50;90.40;;;;;;4991538;28;20453;-74
2023/08/21 12:22:47;;;;;;;6.93;4.10;;;27.50;90.30;;;;;;5025082;28;20421;-74
2023/08/21 12:25:13;;;;;;;4.63;3.93;;;27.60;90.20;;;;;;4998409;28;20471;-73
2023/08/21 12:27:39;;;;;;;4.30;3.93;;;27.60;90.20;;;;;;5004304;28;20443;-73
2023/08/21 12:30:11;;;;;;;3.90;3.60;;;27.60;90.20;;;;;;4971871;28;20989;-74
2023/08/21 12:32:37;;;;;;;5.53;4.37;;;27.60;90.20;;;;;;4987506;28;20478;-73
2023/08/21 12:35:05;;;;;;;4.03;3.70;;;27.70;90.10;;;;;;5012751;28;21110;-74
2023/08/21 12:37:31;;;;;;;4.60;4.20;;;27.70;90.20;;;;;;5007412;28;20416;-74
2023/08/21 12:39:57;;;;;;;4.33;3.90;;;27.70;90.10;;;;;;5024221;28;20507;-74
2023/08/21 12:42:26;;;;;;;4.17;3.73;;;27.70;90.10;;;;;;5024215;28;20423;-74
2023/08/21 12:44:52;;;;;;;5.00;4.03;;;27.80;90.10;;;;;;5023809;28;20554;-74
2023/08/21 12:47:20;;;;;;;4.37;3.97;;;27.80;90.10;;;;;;5023167;28;20422;-74
2023/08/21 12:49:46;;;;;;;4.40;4.10;;;27.80;90.10;;;;;;5023609;28;20423;-74
2023/08/21 12:52:12;;;;;;;5.60;4.03;;;27.80;89.80;;;;;;5023682;28;20346;-74
2023/08/21 12:54:39;;;;;;;5.13;4.70;;;27.90;89.80;;;;;;5023719;28;21034;-74
2023/08/21 12:57:07;;;;;;;4.43;3.97;;;27.90;89.90;;;;;;5024228;28;20411;-74